Terminal Aerodrome Forecast
Issued by NWS

Home | Current Version | Previous Version | Text Only | Print | Product List | Glossary On
Versions: 1 2 3 4 5 6 7 8 9 10 11 12 13 14 15 16 17 18 19
000
FTAK31 PANC 180531
TAFADU
TAF
PADU 180531Z 1806/1906 32007KT P6SM -SHRA BKN025 BKN040
      TEMPO 1806/1810 SCT030 BKN045=

USA.gov is the U.S. government's official web portal to all federal, state and local government web resources and services.